sensor_id;sensor_type;location;lat;lon;timestamp;P1;durP1;ratioP1;P2;durP2;ratioP2
61020;SDS011;66055;43.496;3.710;2022-12-18T00:01:35;17.75;;;11.43;;
61020;SDS011;66055;43.496;3.710;2022-12-18T00:04:03;17.67;;;12.35;;
61020;SDS011;66055;43.496;3.710;2022-12-18T00:06:31;18.58;;;12.20;;
61020;SDS011;66055;43.496;3.710;2022-12-18T00:08:58;19.73;;;13.20;;
61020;SDS011;66055;43.496;3.710;2022-12-18T00:11:25;17.98;;;12.48;;
61020;SDS011;66055;43.496;3.710;2022-12-18T00:13:53;19.33;;;12.15;;
61020;SDS011;66055;43.496;3.710;2022-12-18T00:16:21;19.55;;;12.90;;
61020;SDS011;66055;43.496;3.710;2022-12-18T00:18:48;20.10;;;12.93;;
61020;SDS011;66055;43.496;3.710;2022-12-18T00:21:17;19.50;;;13.07;;
61020;SDS011;66055;43.496;3.710;2022-12-18T00:23:44;21.35;;;12.55;;
61020;SDS011;66055;43.496;3.710;2022-12-18T00:26:12;21.48;;;13.73;;
61020;SDS011;66055;43.496;3.710;2022-12-18T00:28:40;20.58;;;12.60;;
61020;SDS011;66055;43.496;3.710;2022-12-18T00:31:07;21.80;;;13.65;;
61020;SDS011;66055;43.496;3.710;2022-12-18T00:33:34;20.15;;;12.98;;
61020;SDS011;66055;43.496;3.710;2022-12-18T00:36:01;22.42;;;13.70;;
61020;SDS011;66055;43.496;3.710;2022-12-18T00:38:32;22.92;;;13.75;;
61020;SDS011;66055;43.496;3.710;2022-12-18T00:40:58;20.95;;;13.18;;
61020;SDS011;66055;43.496;3.710;2022-12-18T00:43:24;21.98;;;14.05;;
61020;SDS011;66055;43.496;3.710;2022-12-18T00:45:50;20.90;;;13.18;;
61020;SDS011;66055;43.496;3.710;2022-12-18T00:48:16;17.52;;;12.05;;
61020;SDS011;66055;43.496;3.710;2022-12-18T00:50:42;18.73;;;12.77;;
61020;SDS011;66055;43.496;3.710;2022-12-18T00:53:07;21.98;;;12.60;;
61020;SDS011;66055;43.496;3.710;2022-12-18T00:55:33;20.85;;;13.43;;
61020;SDS011;66055;43.496;3.710;2022-12-18T00:57:59;18.20;;;12.73;;
61020;SDS011;66055;43.496;3.710;2022-12-18T01:00:25;18.00;;;12.73;;
61020;SDS011;66055;43.496;3.710;2022-12-18T01:02:50;19.48;;;12.73;;
61020;SDS011;66055;43.496;3.710;2022-12-18T01:05:16;17.77;;;12.35;;
61020;SDS011;66055;43.496;3.710;2022-12-18T01:07:42;18.90;;;12.02;;
61020;SDS011;66055;43.496;3.710;2022-12-18T01:10:09;18.48;;;12.65;;
61020;SDS011;66055;43.496;3.710;2022-12-18T01:12:37;22.35;;;13.90;;
61020;SDS011;66055;43.496;3.710;2022-12-18T01:15:04;30.77;;;19.23;;
61020;SDS011;66055;43.496;3.710;2022-12-18T01:17:30;27.67;;;16.55;;
61020;SDS011;66055;43.496;3.710;2022-12-18T01:19:56;25.80;;;16.25;;
61020;SDS011;66055;43.496;3.710;2022-12-18T01:22:22;23.50;;;13.90;;
61020;SDS011;66055;43.496;3.710;2022-12-18T01:24:48;26.40;;;15.70;;
61020;SDS011;66055;43.496;3.710;2022-12-18T01:27:13;23.58;;;14.35;;
61020;SDS011;66055;43.496;3.710;2022-12-18T01:29:39;19.55;;;11.25;;
61020;SDS011;66055;43.496;3.710;2022-12-18T01:32:05;19.50;;;11.50;;
61020;SDS011;66055;43.496;3.710;2022-12-18T01:34:30;22.77;;;12.85;;
61020;SDS011;66055;43.496;3.710;2022-12-18T01:36:56;20.95;;;11.43;;
61020;SDS011;66055;43.496;3.710;2022-12-18T01:39:23;17.35;;;11.02;;
61020;SDS011;66055;43.496;3.710;2022-12-18T01:41:49;13.18;;;9.32;;
61020;SDS011;66055;43.496;3.710;2022-12-18T01:45:01;14.50;;;9.48;;
61020;SDS011;66055;43.496;3.710;2022-12-18T01:50:08;14.60;;;7.65;;
61020;SDS011;66055;43.496;3.710;2022-12-18T01:52:41;11.48;;;7.57;;
61020;SDS011;66055;43.496;3.710;2022-12-18T01:55:10;12.70;;;8.00;;
61020;SDS011;66055;43.496;3.710;2022-12-18T01:57:37;14.05;;;7.93;;
61020;SDS011;66055;43.496;3.710;2022-12-18T02:00:08;11.73;;;7.97;;
61020;SDS011;66055;43.496;3.710;2022-12-18T02:02:43;12.43;;;7.80;;
61020;SDS011;66055;43.496;3.710;2022-12-18T02:05:10;12.30;;;7.75;;
61020;SDS011;66055;43.496;3.710;2022-12-18T02:08:01;10.57;;;7.07;;
61020;SDS011;66055;43.496;3.710;2022-12-18T02:13:02;11.80;;;7.50;;
61020;SDS011;66055;43.496;3.710;2022-12-18T02:16:04;12.05;;;6.75;;
61020;SDS011;66055;43.496;3.710;2022-12-18T02:18:34;12.68;;;6.78;;
61020;SDS011;66055;43.496;3.710;2022-12-18T02:26:50;11.40;;;7.53;;
61020;SDS011;66055;43.496;3.710;2022-12-18T02:29:41;11.75;;;7.53;;
61020;SDS011;66055;43.496;3.710;2022-12-18T02:32:10;13.40;;;7.72;;
61020;SDS011;66055;43.496;3.710;2022-12-18T02:34:40;13.63;;;7.65;;
61020;SDS011;66055;43.496;3.710;2022-12-18T02:37:09;10.85;;;7.75;;
61020;SDS011;66055;43.496;3.710;2022-12-18T02:39:39;12.50;;;7.38;;
61020;SDS011;66055;43.496;3.710;2022-12-18T02:42:07;12.80;;;7.50;;
61020;SDS011;66055;43.496;3.710;2022-12-18T02:44:34;11.23;;;7.35;;
61020;SDS011;66055;43.496;3.710;2022-12-18T02:47:08;13.75;;;8.00;;
61020;SDS011;66055;43.496;3.710;2022-12-18T02:52:20;10.93;;;7.22;;
61020;SDS011;66055;43.496;3.710;2022-12-18T02:54:57;11.35;;;7.45;;
61020;SDS011;66055;43.496;3.710;2022-12-18T02:57:36;12.23;;;8.23;;
61020;SDS011;66055;43.496;3.710;2022-12-18T03:00:24;14.90;;;8.90;;
61020;SDS011;66055;43.496;3.710;2022-12-18T03:03:05;12.32;;;8.13;;
61020;SDS011;66055;43.496;3.710;2022-12-18T03:05:52;10.98;;;7.47;;
61020;SDS011;66055;43.496;3.710;2022-12-18T03:08:30;10.25;;;6.93;;
61020;SDS011;66055;43.496;3.710;2022-12-18T03:11:02;10.73;;;7.28;;
61020;SDS011;66055;43.496;3.710;2022-12-18T03:13:34;13.05;;;8.13;;
61020;SDS011;66055;43.496;3.710;2022-12-18T03:16:05;13.15;;;8.02;;
61020;SDS011;66055;43.496;3.710;2022-12-18T03:21:00;12.38;;;8.13;;
61020;SDS011;66055;43.496;3.710;2022-12-18T03:23:30;12.35;;;8.27;;
61020;SDS011;66055;43.496;3.710;2022-12-18T03:26:01;11.82;;;8.32;;
61020;SDS011;66055;43.496;3.710;2022-12-18T03:28:30;13.80;;;8.32;;
61020;SDS011;66055;43.496;3.710;2022-12-18T03:31:01;11.25;;;7.93;;
61020;SDS011;66055;43.496;3.710;2022-12-18T03:33:45;11.70;;;7.88;;
61020;SDS011;66055;43.496;3.710;2022-12-18T03:36:16;11.25;;;7.53;;
61020;SDS011;66055;43.496;3.710;2022-12-18T03:38:43;13.15;;;7.70;;
61020;SDS011;66055;43.496;3.710;2022-12-18T03:43:37;12.02;;;7.28;;
61020;SDS011;66055;43.496;3.710;2022-12-18T03:46:37;12.20;;;7.45;;
61020;SDS011;66055;43.496;3.710;2022-12-18T03:49:13;13.10;;;7.15;;
61020;SDS011;66055;43.496;3.710;2022-12-18T03:51:52;11.43;;;7.18;;
61020;SDS011;66055;43.496;3.710;2022-12-18T03:54:29;11.05;;;7.00;;
61020;SDS011;66055;43.496;3.710;2022-12-18T03:56:58;11.35;;;7.28;;
61020;SDS011;66055;43.496;3.710;2022-12-18T03:59:32;10.25;;;6.45;;
61020;SDS011;66055;43.496;3.710;2022-12-18T04:01:59;10.05;;;6.40;;
61020;SDS011;66055;43.496;3.710;2022-12-18T04:04:27;8.93;;;6.07;;
61020;SDS011;66055;43.496;3.710;2022-12-18T04:06:54;13.05;;;8.43;;
61020;SDS011;66055;43.496;3.710;2022-12-18T04:09:20;12.88;;;8.15;;
61020;SDS011;66055;43.496;3.710;2022-12-18T04:11:46;11.13;;;7.28;;
61020;SDS011;66055;43.496;3.710;2022-12-18T04:14:13;11.05;;;6.35;;
61020;SDS011;66055;43.496;3.710;2022-12-18T04:16:38;10.82;;;6.60;;
61020;SDS011;66055;43.496;3.710;2022-12-18T04:19:04;9.57;;;6.00;;
61020;SDS011;66055;43.496;3.710;2022-12-18T04:21:30;10.18;;;6.43;;
61020;SDS011;66055;43.496;3.710;2022-12-18T04:23:56;10.50;;;6.30;;
61020;SDS011;66055;43.496;3.710;2022-12-18T04:26:21;11.75;;;7.47;;
61020;SDS011;66055;43.496;3.710;2022-12-18T04:28:47;16.90;;;6.43;;
61020;SDS011;66055;43.496;3.710;2022-12-18T04:31:13;10.05;;;6.55;;
61020;SDS011;66055;43.496;3.710;2022-12-18T04:33:38;11.07;;;7.18;;
61020;SDS011;66055;43.496;3.710;2022-12-18T04:36:04;10.45;;;6.65;;
61020;SDS011;66055;43.496;3.710;2022-12-18T04:38:30;9.27;;;6.65;;
61020;SDS011;66055;43.496;3.710;2022-12-18T04:40:56;11.75;;;7.55;;
61020;SDS011;66055;43.496;3.710;2022-12-18T04:43:21;10.35;;;7.03;;
61020;SDS011;66055;43.496;3.710;2022-12-18T04:45:47;10.98;;;6.60;;
61020;SDS011;66055;43.496;3.710;2022-12-18T04:48:13;15.00;;;6.80;;
61020;SDS011;66055;43.496;3.710;2022-12-18T04:50:38;11.45;;;7.05;;
61020;SDS011;66055;43.496;3.710;2022-12-18T04:53:04;9.50;;;6.28;;
61020;SDS011;66055;43.496;3.710;2022-12-18T04:55:30;8.68;;;5.65;;
61020;SDS011;66055;43.496;3.710;2022-12-18T04:57:55;8.45;;;5.65;;
61020;SDS011;66055;43.496;3.710;2022-12-18T05:00:21;10.00;;;6.32;;
61020;SDS011;66055;43.496;3.710;2022-12-18T05:02:47;8.80;;;5.85;;
61020;SDS011;66055;43.496;3.710;2022-12-18T05:05:13;10.57;;;6.13;;
61020;SDS011;66055;43.496;3.710;2022-12-18T05:07:39;12.10;;;8.10;;
61020;SDS011;66055;43.496;3.710;2022-12-18T05:10:05;12.38;;;7.75;;
61020;SDS011;66055;43.496;3.710;2022-12-18T05:12:32;8.65;;;5.82;;
61020;SDS011;66055;43.496;3.710;2022-12-18T05:14:57;8.63;;;5.72;;
61020;SDS011;66055;43.496;3.710;2022-12-18T05:17:23;9.60;;;6.63;;
61020;SDS011;66055;43.496;3.710;2022-12-18T05:19:49;9.20;;;5.57;;
61020;SDS011;66055;43.496;3.710;2022-12-18T05:22:15;13.07;;;7.20;;
61020;SDS011;66055;43.496;3.710;2022-12-18T05:24:40;10.25;;;7.32;;
61020;SDS011;66055;43.496;3.710;2022-12-18T05:27:06;10.25;;;6.45;;
61020;SDS011;66055;43.496;3.710;2022-12-18T05:29:32;10.13;;;6.35;;
61020;SDS011;66055;43.496;3.710;2022-12-18T05:31:58;10.13;;;6.75;;
61020;SDS011;66055;43.496;3.710;2022-12-18T05:34:24;10.52;;;6.30;;
61020;SDS011;66055;43.496;3.710;2022-12-18T05:36:49;8.75;;;6.03;;
61020;SDS011;66055;43.496;3.710;2022-12-18T05:39:15;11.15;;;6.30;;
61020;SDS011;66055;43.496;3.710;2022-12-18T05:41:41;9.27;;;5.78;;
61020;SDS011;66055;43.496;3.710;2022-12-18T05:44:06;13.07;;;6.32;;
61020;SDS011;66055;43.496;3.710;2022-12-18T05:46:32;10.35;;;6.97;;
61020;SDS011;66055;43.496;3.710;2022-12-18T05:49:01;10.05;;;5.78;;
61020;SDS011;66055;43.496;3.710;2022-12-18T05:51:27;9.45;;;5.72;;
61020;SDS011;66055;43.496;3.710;2022-12-18T05:53:52;9.45;;;5.95;;
61020;SDS011;66055;43.496;3.710;2022-12-18T05:56:19;10.85;;;6.30;;
61020;SDS011;66055;43.496;3.710;2022-12-18T05:58:46;10.07;;;6.22;;
61020;SDS011;66055;43.496;3.710;2022-12-18T06:03:38;11.70;;;6.82;;
61020;SDS011;66055;43.496;3.710;2022-12-18T06:08:37;10.85;;;6.22;;
61020;SDS011;66055;43.496;3.710;2022-12-18T06:11:03;11.55;;;7.22;;
61020;SDS011;66055;43.496;3.710;2022-12-18T06:13:28;13.23;;;8.27;;
61020;SDS011;66055;43.496;3.710;2022-12-18T06:15:54;10.23;;;6.68;;
61020;SDS011;66055;43.496;3.710;2022-12-18T06:18:20;11.02;;;6.53;;
61020;SDS011;66055;43.496;3.710;2022-12-18T06:20:53;11.73;;;6.60;;
61020;SDS011;66055;43.496;3.710;2022-12-18T06:23:20;19.90;;;12.88;;
61020;SDS011;66055;43.496;3.710;2022-12-18T06:25:46;48.63;;;30.15;;
61020;SDS011;66055;43.496;3.710;2022-12-18T06:28:12;41.13;;;23.48;;
61020;SDS011;66055;43.496;3.710;2022-12-18T06:30:37;23.60;;;14.00;;
61020;SDS011;66055;43.496;3.710;2022-12-18T06:33:03;14.38;;;7.97;;
61020;SDS011;66055;43.496;3.710;2022-12-18T06:35:29;16.20;;;9.55;;
61020;SDS011;66055;43.496;3.710;2022-12-18T06:37:54;10.88;;;5.97;;
61020;SDS011;66055;43.496;3.710;2022-12-18T06:40:20;13.02;;;7.90;;
61020;SDS011;66055;43.496;3.710;2022-12-18T06:42:46;9.48;;;5.93;;
61020;SDS011;66055;43.496;3.710;2022-12-18T06:45:11;10.50;;;5.47;;
61020;SDS011;66055;43.496;3.710;2022-12-18T06:47:37;18.98;;;12.57;;
61020;SDS011;66055;43.496;3.710;2022-12-18T06:50:03;10.13;;;6.45;;
61020;SDS011;66055;43.496;3.710;2022-12-18T06:52:31;9.60;;;6.28;;
61020;SDS011;66055;43.496;3.710;2022-12-18T06:54:57;8.18;;;5.65;;
61020;SDS011;66055;43.496;3.710;2022-12-18T06:57:23;7.68;;;5.10;;
61020;SDS011;66055;43.496;3.710;2022-12-18T06:59:49;10.57;;;6.13;;
61020;SDS011;66055;43.496;3.710;2022-12-18T07:02:14;8.55;;;4.78;;
61020;SDS011;66055;43.496;3.710;2022-12-18T07:04:40;7.90;;;5.05;;
61020;SDS011;66055;43.496;3.710;2022-12-18T07:07:06;7.75;;;5.30;;
61020;SDS011;66055;43.496;3.710;2022-12-18T07:09:31;21.35;;;13.27;;
61020;SDS011;66055;43.496;3.710;2022-12-18T07:11:57;15.80;;;10.57;;
61020;SDS011;66055;43.496;3.710;2022-12-18T07:14:23;17.52;;;11.55;;
61020;SDS011;66055;43.496;3.710;2022-12-18T07:16:48;22.38;;;15.23;;
61020;SDS011;66055;43.496;3.710;2022-12-18T07:19:14;14.18;;;9.52;;
61020;SDS011;66055;43.496;3.710;2022-12-18T07:21:40;12.77;;;8.70;;
61020;SDS011;66055;43.496;3.710;2022-12-18T07:24:05;12.30;;;8.77;;
61020;SDS011;66055;43.496;3.710;2022-12-18T07:26:31;18.67;;;11.65;;
61020;SDS011;66055;43.496;3.710;2022-12-18T07:28:57;12.05;;;7.95;;
61020;SDS011;66055;43.496;3.710;2022-12-18T07:31:23;14.30;;;9.45;;
61020;SDS011;66055;43.496;3.710;2022-12-18T07:33:50;9.25;;;6.15;;
61020;SDS011;66055;43.496;3.710;2022-12-18T07:36:16;12.95;;;9.38;;
61020;SDS011;66055;43.496;3.710;2022-12-18T07:38:42;17.40;;;10.00;;
61020;SDS011;66055;43.496;3.710;2022-12-18T07:41:12;13.80;;;9.13;;
61020;SDS011;66055;43.496;3.710;2022-12-18T07:43:39;16.33;;;10.35;;
61020;SDS011;66055;43.496;3.710;2022-12-18T07:46:06;18.02;;;11.70;;
61020;SDS011;66055;43.496;3.710;2022-12-18T07:48:32;13.00;;;8.32;;
61020;SDS011;66055;43.496;3.710;2022-12-18T07:51:02;20.10;;;10.55;;
61020;SDS011;66055;43.496;3.710;2022-12-18T07:53:29;19.40;;;11.10;;
61020;SDS011;66055;43.496;3.710;2022-12-18T07:55:56;13.00;;;8.30;;
61020;SDS011;66055;43.496;3.710;2022-12-18T07:58:22;9.95;;;6.38;;
61020;SDS011;66055;43.496;3.710;2022-12-18T08:00:48;13.00;;;7.50;;
61020;SDS011;66055;43.496;3.710;2022-12-18T08:03:14;17.33;;;7.57;;
61020;SDS011;66055;43.496;3.710;2022-12-18T08:05:40;8.57;;;5.35;;
61020;SDS011;66055;43.496;3.710;2022-12-18T08:08:06;13.15;;;7.85;;
61020;SDS011;66055;43.496;3.710;2022-12-18T08:10:31;14.75;;;8.50;;
61020;SDS011;66055;43.496;3.710;2022-12-18T08:12:57;13.88;;;9.45;;
61020;SDS011;66055;43.496;3.710;2022-12-18T08:15:23;8.27;;;4.70;;
61020;SDS011;66055;43.496;3.710;2022-12-18T08:17:48;9.70;;;6.07;;
61020;SDS011;66055;43.496;3.710;2022-12-18T08:20:14;13.80;;;7.82;;
61020;SDS011;66055;43.496;3.710;2022-12-18T08:22:41;12.00;;;7.47;;
61020;SDS011;66055;43.496;3.710;2022-12-18T08:25:07;11.20;;;6.15;;
61020;SDS011;66055;43.496;3.710;2022-12-18T08:27:33;20.80;;;9.32;;
61020;SDS011;66055;43.496;3.710;2022-12-18T08:29:59;20.08;;;9.45;;
61020;SDS011;66055;43.496;3.710;2022-12-18T08:32:25;69.28;;;37.00;;
61020;SDS011;66055;43.496;3.710;2022-12-18T08:34:52;51.15;;;31.50;;
61020;SDS011;66055;43.496;3.710;2022-12-18T08:37:18;26.50;;;15.77;;
61020;SDS011;66055;43.496;3.710;2022-12-18T08:39:43;27.52;;;16.60;;
61020;SDS011;66055;43.496;3.710;2022-12-18T08:42:09;21.85;;;12.38;;
61020;SDS011;66055;43.496;3.710;2022-12-18T08:44:54;12.48;;;6.25;;
61020;SDS011;66055;43.496;3.710;2022-12-18T08:47:19;16.02;;;9.48;;
61020;SDS011;66055;43.496;3.710;2022-12-18T08:49:45;13.73;;;7.22;;
61020;SDS011;66055;43.496;3.710;2022-12-18T08:52:11;14.30;;;7.90;;
61020;SDS011;66055;43.496;3.710;2022-12-18T08:54:36;11.20;;;7.07;;
61020;SDS011;66055;43.496;3.710;2022-12-18T08:57:02;18.40;;;9.25;;
61020;SDS011;66055;43.496;3.710;2022-12-18T08:59:28;15.18;;;9.10;;
61020;SDS011;66055;43.496;3.710;2022-12-18T09:01:53;14.95;;;8.70;;
61020;SDS011;66055;43.496;3.710;2022-12-18T09:04:20;17.20;;;8.60;;
61020;SDS011;66055;43.496;3.710;2022-12-18T09:06:46;22.67;;;11.85;;
61020;SDS011;66055;43.496;3.710;2022-12-18T09:09:11;20.42;;;11.15;;
61020;SDS011;66055;43.496;3.710;2022-12-18T09:11:37;23.85;;;10.38;;
61020;SDS011;66055;43.496;3.710;2022-12-18T09:14:03;24.80;;;10.88;;
61020;SDS011;66055;43.496;3.710;2022-12-18T09:16:29;15.10;;;9.07;;
61020;SDS011;66055;43.496;3.710;2022-12-18T09:18:57;13.43;;;7.32;;
61020;SDS011;66055;43.496;3.710;2022-12-18T09:21:27;21.02;;;10.77;;
61020;SDS011;66055;43.496;3.710;2022-12-18T09:23:55;20.25;;;11.20;;
61020;SDS011;66055;43.496;3.710;2022-12-18T09:26:22;21.33;;;11.68;;
61020;SDS011;66055;43.496;3.710;2022-12-18T09:28:49;29.73;;;18.90;;
61020;SDS011;66055;43.496;3.710;2022-12-18T09:33:41;13.63;;;8.17;;
61020;SDS011;66055;43.496;3.710;2022-12-18T09:36:08;15.57;;;8.63;;
61020;SDS011;66055;43.496;3.710;2022-12-18T09:38:35;21.50;;;13.15;;
61020;SDS011;66055;43.496;3.710;2022-12-18T09:41:05;17.33;;;9.60;;
61020;SDS011;66055;43.496;3.710;2022-12-18T09:43:49;22.67;;;14.30;;
61020;SDS011;66055;43.496;3.710;2022-12-18T09:46:28;13.27;;;7.55;;
61020;SDS011;66055;43.496;3.710;2022-12-18T09:49:00;24.33;;;13.88;;
61020;SDS011;66055;43.496;3.710;2022-12-18T09:51:32;21.60;;;15.18;;
61020;SDS011;66055;43.496;3.710;2022-12-18T09:54:03;20.08;;;11.07;;
61020;SDS011;66055;43.496;3.710;2022-12-18T09:56:35;20.48;;;11.63;;
61020;SDS011;66055;43.496;3.710;2022-12-18T09:59:03;14.73;;;7.85;;
61020;SDS011;66055;43.496;3.710;2022-12-18T10:01:30;16.77;;;9.52;;
61020;SDS011;66055;43.496;3.710;2022-12-18T10:03:57;27.55;;;14.27;;
61020;SDS011;66055;43.496;3.710;2022-12-18T10:11:38;24.88;;;12.75;;
61020;SDS011;66055;43.496;3.710;2022-12-18T10:14:30;23.20;;;12.10;;
61020;SDS011;66055;43.496;3.710;2022-12-18T10:17:23;14.68;;;8.13;;
61020;SDS011;66055;43.496;3.710;2022-12-18T10:19:58;62.85;;;35.90;;
61020;SDS011;66055;43.496;3.710;2022-12-18T10:27:43;76.97;;;42.60;;
61020;SDS011;66055;43.496;3.710;2022-12-18T10:32:42;22.10;;;11.60;;
61020;SDS011;66055;43.496;3.710;2022-12-18T10:35:12;20.83;;;12.27;;
61020;SDS011;66055;43.496;3.710;2022-12-18T10:40:53;17.83;;;11.80;;
61020;SDS011;66055;43.496;3.710;2022-12-18T10:48:36;25.27;;;13.02;;
61020;SDS011;66055;43.496;3.710;2022-12-18T10:54:05;18.75;;;12.05;;
61020;SDS011;66055;43.496;3.710;2022-12-18T10:56:39;18.45;;;10.45;;
61020;SDS011;66055;43.496;3.710;2022-12-18T10:59:06;14.95;;;8.75;;
61020;SDS011;66055;43.496;3.710;2022-12-18T11:01:53;12.95;;;7.47;;
61020;SDS011;66055;43.496;3.710;2022-12-18T11:04:28;13.77;;;8.07;;
61020;SDS011;66055;43.496;3.710;2022-12-18T11:07:01;17.83;;;9.65;;
61020;SDS011;66055;43.496;3.710;2022-12-18T11:09:35;14.02;;;8.07;;
61020;SDS011;66055;43.496;3.710;2022-12-18T11:12:14;13.77;;;7.97;;
61020;SDS011;66055;43.496;3.710;2022-12-18T11:20:00;19.30;;;9.95;;
61020;SDS011;66055;43.496;3.710;2022-12-18T11:22:54;22.95;;;12.25;;
61020;SDS011;66055;43.496;3.710;2022-12-18T11:25:22;35.13;;;20.03;;
61020;SDS011;66055;43.496;3.710;2022-12-18T11:27:49;27.17;;;16.20;;
61020;SDS011;66055;43.496;3.710;2022-12-18T11:32:48;39.58;;;25.60;;
61020;SDS011;66055;43.496;3.710;2022-12-18T11:38:04;26.23;;;13.40;;
61020;SDS011;66055;43.496;3.710;2022-12-18T11:40:45;41.75;;;26.85;;
61020;SDS011;66055;43.496;3.710;2022-12-18T11:43:22;21.25;;;13.63;;
61020;SDS011;66055;43.496;3.710;2022-12-18T11:46:06;22.20;;;13.63;;
61020;SDS011;66055;43.496;3.710;2022-12-18T11:51:41;22.33;;;12.80;;
61020;SDS011;66055;43.496;3.710;2022-12-18T11:54:14;20.95;;;14.18;;
61020;SDS011;66055;43.496;3.710;2022-12-18T11:56:51;24.60;;;13.65;;
61020;SDS011;66055;43.496;3.710;2022-12-18T12:14:26;21.70;;;12.85;;
61020;SDS011;66055;43.496;3.710;2022-12-18T12:23:13;56.63;;;31.45;;
61020;SDS011;66055;43.496;3.710;2022-12-18T12:25:59;35.08;;;19.92;;
61020;SDS011;66055;43.496;3.710;2022-12-18T12:34:19;30.23;;;19.08;;
61020;SDS011;66055;43.496;3.710;2022-12-18T12:39:34;48.55;;;28.92;;
61020;SDS011;66055;43.496;3.710;2022-12-18T12:42:08;34.17;;;22.55;;
61020;SDS011;66055;43.496;3.710;2022-12-18T12:45:07;27.70;;;17.92;;
61020;SDS011;66055;43.496;3.710;2022-12-18T12:47:43;23.58;;;15.40;;
61020;SDS011;66055;43.496;3.710;2022-12-18T12:50:13;20.10;;;14.73;;
61020;SDS011;66055;43.496;3.710;2022-12-18T12:52:45;23.40;;;12.73;;
61020;SDS011;66055;43.496;3.710;2022-12-18T12:55:22;20.08;;;11.15;;
61020;SDS011;66055;43.496;3.710;2022-12-18T13:00:49;22.92;;;13.30;;
61020;SDS011;66055;43.496;3.710;2022-12-18T13:03:42;15.70;;;9.80;;
61020;SDS011;66055;43.496;3.710;2022-12-18T13:06:47;16.33;;;10.80;;
61020;SDS011;66055;43.496;3.710;2022-12-18T13:11:49;17.35;;;11.20;;
61020;SDS011;66055;43.496;3.710;2022-12-18T13:14:37;18.08;;;11.93;;
61020;SDS011;66055;43.496;3.710;2022-12-18T13:19:42;16.13;;;10.73;;
61020;SDS011;66055;43.496;3.710;2022-12-18T13:28:13;19.02;;;11.13;;
61020;SDS011;66055;43.496;3.710;2022-12-18T13:30:49;21.77;;;13.05;;
61020;SDS011;66055;43.496;3.710;2022-12-18T13:41:00;28.63;;;19.25;;
61020;SDS011;66055;43.496;3.710;2022-12-18T13:43:28;21.17;;;13.93;;
61020;SDS011;66055;43.496;3.710;2022-12-18T13:51:46;20.05;;;12.07;;
61020;SDS011;66055;43.496;3.710;2022-12-18T13:54:26;22.38;;;14.70;;
61020;SDS011;66055;43.496;3.710;2022-12-18T13:57:05;21.83;;;12.77;;
61020;SDS011;66055;43.496;3.710;2022-12-18T13:59:48;19.15;;;10.90;;
61020;SDS011;66055;43.496;3.710;2022-12-18T14:02:19;28.55;;;15.10;;
61020;SDS011;66055;43.496;3.710;2022-12-18T14:04:48;16.38;;;11.25;;
61020;SDS011;66055;43.496;3.710;2022-12-18T14:07:23;30.20;;;18.13;;
61020;SDS011;66055;43.496;3.710;2022-12-18T14:09:58;20.65;;;13.35;;
61020;SDS011;66055;43.496;3.710;2022-12-18T14:12:32;16.58;;;11.93;;
61020;SDS011;66055;43.496;3.710;2022-12-18T14:17:57;21.02;;;13.48;;
61020;SDS011;66055;43.496;3.710;2022-12-18T14:20:29;20.58;;;11.95;;
61020;SDS011;66055;43.496;3.710;2022-12-18T14:22:57;26.70;;;15.20;;
61020;SDS011;66055;43.496;3.710;2022-12-18T14:25:26;20.73;;;12.82;;
61020;SDS011;66055;43.496;3.710;2022-12-18T14:28:02;22.42;;;12.30;;
61020;SDS011;66055;43.496;3.710;2022-12-18T14:30:32;21.88;;;13.32;;
61020;SDS011;66055;43.496;3.710;2022-12-18T14:33:18;23.77;;;13.27;;
61020;SDS011;66055;43.496;3.710;2022-12-18T14:35:53;22.55;;;13.05;;
61020;SDS011;66055;43.496;3.710;2022-12-18T14:38:34;23.88;;;14.48;;
61020;SDS011;66055;43.496;3.710;2022-12-18T14:41:11;20.77;;;13.07;;
61020;SDS011;66055;43.496;3.710;2022-12-18T14:43:39;21.88;;;13.70;;
61020;SDS011;66055;43.496;3.710;2022-12-18T14:49:01;22.55;;;14.40;;
61020;SDS011;66055;43.496;3.710;2022-12-18T14:51:30;21.80;;;14.45;;
61020;SDS011;66055;43.496;3.710;2022-12-18T14:53:58;21.60;;;14.80;;
61020;SDS011;66055;43.496;3.710;2022-12-18T14:56:26;28.42;;;16.13;;
61020;SDS011;66055;43.496;3.710;2022-12-18T14:59:16;23.85;;;15.48;;
61020;SDS011;66055;43.496;3.710;2022-12-18T15:04:35;22.30;;;14.50;;
61020;SDS011;66055;43.496;3.710;2022-12-18T15:09:36;26.83;;;15.05;;
61020;SDS011;66055;43.496;3.710;2022-12-18T15:12:03;24.25;;;15.23;;
61020;SDS011;66055;43.496;3.710;2022-12-18T15:16:55;25.52;;;14.52;;
61020;SDS011;66055;43.496;3.710;2022-12-18T15:19:25;19.42;;;13.60;;
61020;SDS011;66055;43.496;3.710;2022-12-18T15:22:20;19.92;;;12.98;;
61020;SDS011;66055;43.496;3.710;2022-12-18T15:24:46;20.35;;;13.52;;
61020;SDS011;66055;43.496;3.710;2022-12-18T15:27:22;22.02;;;12.35;;
61020;SDS011;66055;43.496;3.710;2022-12-18T15:32:34;26.52;;;13.32;;
61020;SDS011;66055;43.496;3.710;2022-12-18T15:37:36;48.80;;;30.65;;
61020;SDS011;66055;43.496;3.710;2022-12-18T15:40:05;36.22;;;24.95;;
61020;SDS011;66055;43.496;3.710;2022-12-18T15:42:32;40.03;;;26.17;;
61020;SDS011;66055;43.496;3.710;2022-12-18T15:45:17;34.15;;;22.65;;
61020;SDS011;66055;43.496;3.710;2022-12-18T15:50:09;32.38;;;21.50;;
61020;SDS011;66055;43.496;3.710;2022-12-18T15:52:41;72.95;;;44.97;;
61020;SDS011;66055;43.496;3.710;2022-12-18T15:55:13;78.95;;;46.00;;
61020;SDS011;66055;43.496;3.710;2022-12-18T15:57:59;85.60;;;48.83;;
61020;SDS011;66055;43.496;3.710;2022-12-18T16:00:25;80.45;;;48.38;;
61020;SDS011;66055;43.496;3.710;2022-12-18T16:02:51;57.60;;;37.10;;
61020;SDS011;66055;43.496;3.710;2022-12-18T16:05:17;43.85;;;30.02;;
61020;SDS011;66055;43.496;3.710;2022-12-18T16:07:45;57.25;;;36.58;;
61020;SDS011;66055;43.496;3.710;2022-12-18T16:10:11;53.95;;;35.90;;
61020;SDS011;66055;43.496;3.710;2022-12-18T16:15:03;51.38;;;32.22;;
61020;SDS011;66055;43.496;3.710;2022-12-18T16:17:30;43.75;;;28.48;;
61020;SDS011;66055;43.496;3.710;2022-12-18T16:19:56;37.70;;;23.38;;
61020;SDS011;66055;43.496;3.710;2022-12-18T16:22:26;40.38;;;27.88;;
61020;SDS011;66055;43.496;3.710;2022-12-18T16:24:54;29.27;;;18.30;;
61020;SDS011;66055;43.496;3.710;2022-12-18T16:27:21;49.90;;;30.30;;
61020;SDS011;66055;43.496;3.710;2022-12-18T16:29:49;46.42;;;28.15;;
61020;SDS011;66055;43.496;3.710;2022-12-18T16:32:15;65.80;;;42.28;;
61020;SDS011;66055;43.496;3.710;2022-12-18T16:34:42;55.20;;;37.45;;
61020;SDS011;66055;43.496;3.710;2022-12-18T16:37:09;40.67;;;26.15;;
61020;SDS011;66055;43.496;3.710;2022-12-18T16:39:36;44.70;;;30.17;;
61020;SDS011;66055;43.496;3.710;2022-12-18T16:42:04;34.28;;;20.35;;
61020;SDS011;66055;43.496;3.710;2022-12-18T16:44:33;43.20;;;25.90;;
61020;SDS011;66055;43.496;3.710;2022-12-18T16:46:59;54.35;;;30.65;;
61020;SDS011;66055;43.496;3.710;2022-12-18T16:49:27;62.00;;;36.00;;
61020;SDS011;66055;43.496;3.710;2022-12-18T16:51:53;55.38;;;31.83;;
61020;SDS011;66055;43.496;3.710;2022-12-18T16:54:19;88.88;;;52.38;;
61020;SDS011;66055;43.496;3.710;2022-12-18T16:56:45;57.65;;;35.17;;
61020;SDS011;66055;43.496;3.710;2022-12-18T16:59:13;66.68;;;41.00;;
61020;SDS011;66055;43.496;3.710;2022-12-18T17:01:39;51.33;;;32.80;;
61020;SDS011;66055;43.496;3.710;2022-12-18T17:06:32;35.85;;;21.10;;
61020;SDS011;66055;43.496;3.710;2022-12-18T17:09:01;34.47;;;20.23;;
61020;SDS011;66055;43.496;3.710;2022-12-18T17:11:31;48.58;;;29.33;;